createdAt,value
2023-01-19T00:00:13.128Z,7.45
2023-01-19T00:02:39.790Z,7.51
2023-01-19T00:05:11.837Z,7.53
2023-01-19T00:07:38.436Z,7.48
2023-01-19T00:10:07.844Z,7.50
2023-01-19T00:12:37.173Z,7.52
2023-01-19T00:15:07.557Z,7.56
2023-01-19T00:17:36.576Z,7.50
2023-01-19T00:20:04.100Z,7.45
2023-01-19T00:22:30.695Z,7.41
2023-01-19T00:25:00.356Z,7.30
2023-01-19T00:27:27.046Z,7.32
2023-01-19T00:29:53.751Z,7.34
2023-01-19T00:32:22.898Z,7.38
2023-01-19T00:34:49.976Z,7.42
2023-01-19T00:37:17.152Z,7.44
2023-01-19T00:39:43.886Z,7.41
2023-01-19T00:42:32.214Z,7.39
2023-01-19T00:44:58.934Z,7.38
2023-01-19T00:47:25.586Z,7.36
2023-01-19T00:49:54.760Z,7.25
2023-01-19T00:52:21.472Z,7.20
2023-01-19T00:54:48.213Z,7.18
2023-01-19T00:57:15.307Z,7.20
2023-01-19T00:59:48.388Z,7.15
2023-01-19T01:02:20.596Z,7.05
2023-01-19T01:04:47.300Z,7.06
2023-01-19T01:07:15.990Z,7.10
2023-01-19T01:09:45.153Z,7.11
2023-01-19T01:12:11.980Z,7.03
2023-01-19T01:14:38.617Z,7.01
2023-01-19T01:17:05.381Z,7.03
2023-01-19T01:19:32.116Z,7.03
2023-01-19T01:21:58.713Z,7.11
2023-01-19T01:24:25.325Z,7.10
2023-01-19T01:26:51.984Z,7.03
2023-01-19T01:29:18.639Z,6.95
2023-01-19T01:31:45.625Z,6.91
2023-01-19T01:34:12.261Z,6.87
2023-01-19T01:36:38.920Z,6.91
2023-01-19T01:39:10.282Z,6.90
2023-01-19T01:44:51.081Z,6.89
2023-01-19T01:47:20.071Z,6.84
2023-01-19T01:49:47.019Z,6.73
2023-01-19T01:52:15.977Z,6.72
2023-01-19T01:54:42.719Z,6.65
2023-01-19T01:57:12.392Z,6.55
2023-01-19T01:59:45.513Z,6.53
2023-01-19T02:02:31.952Z,6.46
2023-01-19T02:05:04.195Z,6.45
2023-01-19T02:07:55.667Z,6.49
2023-01-19T02:10:40.876Z,6.42
2023-01-19T02:13:22.108Z,6.47
2023-01-19T02:15:51.794Z,6.43
2023-01-19T02:18:19.019Z,6.34
2023-01-19T02:20:50.821Z,6.24
2023-01-19T02:23:20.328Z,6.18
2023-01-19T02:25:49.093Z,6.12
2023-01-19T02:28:15.755Z,6.09
2023-01-19T02:30:42.362Z,6.04
2023-01-19T02:33:09.239Z,6.00
2023-01-19T02:35:36.399Z,5.87
2023-01-19T02:38:03.187Z,5.90
2023-01-19T02:40:30.142Z,5.85
2023-01-19T02:42:57.153Z,5.86
2023-01-19T02:45:28.912Z,5.82
2023-01-19T02:47:57.991Z,5.80
2023-01-19T02:50:46.161Z,5.68
2023-01-19T02:53:31.571Z,5.73
2023-01-19T02:56:07.327Z,5.66
2023-01-19T02:58:35.548Z,5.62
2023-01-19T03:01:04.942Z,5.58
2023-01-19T03:03:48.010Z,5.49
2023-01-19T03:06:16.935Z,5.47
2023-01-19T03:08:56.497Z,5.48
2023-01-19T03:11:25.452Z,5.48
2023-01-19T03:14:00.947Z,5.49
2023-01-19T03:16:36.454Z,5.48
2023-01-19T03:19:06.639Z,5.56
2023-01-19T03:21:33.915Z,5.58
2023-01-19T03:24:03.482Z,5.64
2023-01-19T03:26:38.155Z,5.61
2023-01-19T03:29:09.219Z,5.65
2023-01-19T03:31:35.862Z,5.64
2023-01-19T03:34:06.735Z,5.62
2023-01-19T03:36:35.453Z,5.52
2023-01-19T03:39:02.678Z,5.56
2023-01-19T03:41:31.900Z,5.59
2023-01-19T03:44:00.838Z,5.57
2023-01-19T03:46:27.599Z,5.58
2023-01-19T03:48:58.908Z,5.60
2023-01-19T03:51:25.778Z,5.62
2023-01-19T03:53:52.514Z,5.67
2023-01-19T03:56:23.611Z,5.66
2023-01-19T03:58:52.685Z,5.65
2023-01-19T04:01:22.974Z,5.61
2023-01-19T04:03:50.985Z,5.60
2023-01-19T04:06:17.667Z,5.62
2023-01-19T04:08:47.226Z,5.68
2023-01-19T04:11:13.832Z,5.68
2023-01-19T04:13:40.495Z,5.62
2023-01-19T04:16:07.498Z,5.56
2023-01-19T04:18:34.881Z,5.45
2023-01-19T04:21:02.056Z,5.45
2023-01-19T04:23:28.864Z,5.37
2023-01-19T04:26:05.645Z,5.43
2023-01-19T04:28:37.415Z,5.38
2023-01-19T04:31:05.049Z,5.28
2023-01-19T04:33:34.320Z,5.27
2023-01-19T04:36:01.051Z,5.27
2023-01-19T04:38:27.790Z,5.18
2023-01-19T04:40:54.617Z,5.18
2023-01-19T04:43:23.882Z,5.16
2023-01-19T04:45:53.027Z,5.18
2023-01-19T04:48:19.702Z,5.26
2023-01-19T04:50:46.520Z,5.27
2023-01-19T04:53:13.814Z,5.28
2023-01-19T04:55:41.017Z,5.28
2023-01-19T04:58:11.154Z,5.35
2023-01-19T05:00:37.836Z,5.39
2023-01-19T05:03:07.359Z,5.40
2023-01-19T05:05:34.295Z,5.42
2023-01-19T05:08:03.215Z,5.41
2023-01-19T05:10:29.882Z,5.43
2023-01-19T05:12:56.559Z,5.56
2023-01-19T05:15:23.539Z,5.62
2023-01-19T05:17:50.145Z,5.64
2023-01-19T05:20:17.504Z,5.57
2023-01-19T05:22:48.802Z,5.62
2023-01-19T05:25:17.873Z,5.58
2023-01-19T05:27:46.942Z,5.61
2023-01-19T05:30:13.694Z,5.68
2023-01-19T05:32:40.711Z,5.73
2023-01-19T05:35:07.660Z,5.68
2023-01-19T05:37:34.392Z,5.78
2023-01-19T05:40:03.513Z,5.87
2023-01-19T05:42:33.017Z,5.92
2023-01-19T05:44:59.975Z,5.75
2023-01-19T05:47:34.158Z,5.73
2023-01-19T05:50:03.648Z,5.72
2023-01-19T05:52:32.422Z,5.72
2023-01-19T05:54:59.117Z,5.75
2023-01-19T05:57:25.835Z,5.79
2023-01-19T05:59:54.910Z,5.78
2023-01-19T06:02:28.932Z,5.83
2023-01-19T06:04:56.069Z,5.75
2023-01-19T06:07:28.234Z,5.71
2023-01-19T06:09:58.131Z,5.77
2023-01-19T06:12:24.782Z,5.80
2023-01-19T06:14:51.742Z,5.73
2023-01-19T06:17:21.458Z,5.68
2023-01-19T06:19:48.020Z,5.60
2023-01-19T06:22:15.058Z,5.59
2023-01-19T06:24:41.926Z,5.59
2023-01-19T06:27:08.801Z,5.53
2023-01-19T06:29:35.426Z,5.60
2023-01-19T06:32:02.075Z,5.65
2023-01-19T06:34:31.728Z,5.65
2023-01-19T06:36:58.584Z,5.51
2023-01-19T06:39:27.562Z,5.50
2023-01-19T06:41:54.362Z,5.49
2023-01-19T06:44:23.306Z,5.48
2023-01-19T06:46:50.103Z,5.56
2023-01-19T06:49:19.425Z,5.59
2023-01-19T06:51:46.184Z,5.55
2023-01-19T06:54:12.816Z,5.60
2023-01-19T06:56:39.595Z,5.75
2023-01-19T06:59:10.331Z,5.84
2023-01-19T07:01:37.053Z,5.87
2023-01-19T07:04:06.944Z,5.88
2023-01-19T07:06:36.142Z,5.92
2023-01-19T07:09:08.059Z,5.92
2023-01-19T07:11:34.716Z,5.88
2023-01-19T07:14:01.399Z,5.88
2023-01-19T07:16:31.009Z,5.95
2023-01-19T07:19:03.336Z,6.05
2023-01-19T07:21:35.483Z,6.15
2023-01-19T07:24:02.610Z,6.19
2023-01-19T07:26:29.288Z,6.21
2023-01-19T07:28:55.883Z,6.27
2023-01-19T07:31:25.204Z,6.18
2023-01-19T07:33:54.592Z,6.12
2023-01-19T07:36:21.259Z,6.27
2023-01-19T07:38:47.791Z,6.25
2023-01-19T07:41:14.577Z,6.33
2023-01-19T07:43:43.740Z,6.35
2023-01-19T07:46:10.498Z,6.39
2023-01-19T07:48:37.253Z,6.34
2023-01-19T07:51:10.441Z,6.33
2023-01-19T07:53:38.669Z,6.30
2023-01-19T07:56:07.851Z,6.15
2023-01-19T07:58:36.909Z,6.18
2023-01-19T08:01:11.215Z,6.31
2023-01-19T08:03:40.298Z,6.28
2023-01-19T08:06:07.046Z,6.32
2023-01-19T08:08:34.136Z,6.42
2023-01-19T08:11:00.722Z,6.33
2023-01-19T08:13:27.385Z,6.31
2023-01-19T08:15:54.411Z,6.30
2023-01-19T08:18:23.939Z,6.44
2023-01-19T08:20:50.582Z,6.47
2023-01-19T08:23:18.308Z,6.26
2023-01-19T08:25:47.548Z,6.24
2023-01-19T08:28:18.035Z,6.25
2023-01-19T08:30:45.295Z,6.41
2023-01-19T08:33:12.574Z,6.24
2023-01-19T08:35:42.714Z,6.30
2023-01-19T08:38:09.935Z,6.30
2023-01-19T08:40:37.557Z,6.33
2023-01-19T08:43:07.245Z,6.39
2023-01-19T08:45:46.716Z,6.44
2023-01-19T08:48:13.723Z,6.46
2023-01-19T08:50:41.667Z,6.50
2023-01-19T08:53:08.542Z,6.45
2023-01-19T08:55:36.266Z,6.34
2023-01-19T08:58:04.445Z,6.18
2023-01-19T09:00:37.998Z,6.19
2023-01-19T09:03:05.939Z,6.18
2023-01-19T09:05:35.749Z,6.21
2023-01-19T09:08:03.154Z,6.21
2023-01-19T09:10:36.496Z,6.23
2023-01-19T09:13:08.562Z,6.33
2023-01-19T09:15:39.169Z,6.38
2023-01-19T09:18:10.308Z,6.34
2023-01-19T09:20:39.464Z,6.39
2023-01-19T09:23:06.326Z,6.42
2023-01-19T09:25:43.395Z,6.43
2023-01-19T09:28:13.436Z,6.44
2023-01-19T09:30:40.919Z,6.41
2023-01-19T09:33:08.480Z,6.46
2023-01-19T09:35:37.632Z,6.45
2023-01-19T09:38:07.696Z,6.28
2023-01-19T09:40:37.379Z,6.38
2023-01-19T09:43:12.158Z,6.48
2023-01-19T09:45:40.236Z,6.45
2023-01-19T09:48:16.428Z,6.44
2023-01-19T09:50:47.243Z,6.36
2023-01-19T09:53:14.525Z,6.38
2023-01-19T09:55:41.996Z,6.17
2023-01-19T09:58:16.499Z,6.22
2023-01-19T10:00:44.610Z,5.97
2023-01-19T10:03:17.716Z,5.66
2023-01-19T10:05:49.941Z,5.26
2023-01-19T10:08:23.238Z,5.01
2023-01-19T10:10:53.747Z,5.04
2023-01-19T10:13:40.461Z,4.98
2023-01-19T10:16:13.571Z,4.92
2023-01-19T10:18:51.569Z,4.85
2023-01-19T10:21:25.181Z,4.74
2023-01-19T10:23:53.104Z,4.65
2023-01-19T10:26:26.072Z,4.57
2023-01-19T10:28:55.814Z,4.58
2023-01-19T10:31:23.347Z,4.57
2023-01-19T10:33:57.007Z,4.52
2023-01-19T10:36:43.874Z,4.60
2023-01-19T10:39:10.513Z,4.64
2023-01-19T10:41:40.164Z,4.72
2023-01-19T10:44:07.750Z,4.55
2023-01-19T10:46:37.147Z,4.52
2023-01-19T10:49:06.344Z,4.45
2023-01-19T10:51:33.136Z,4.48
2023-01-19T10:54:03.648Z,4.49
2023-01-19T10:56:32.032Z,4.39
2023-01-19T10:59:03.806Z,4.33
2023-01-19T11:01:31.308Z,4.22
2023-01-19T11:04:05.711Z,4.12
2023-01-19T11:06:33.404Z,4.06
2023-01-19T11:09:13.070Z,4.07
2023-01-19T11:11:43.783Z,4.06
2023-01-19T11:14:11.342Z,3.88
2023-01-19T11:16:40.297Z,3.84
2023-01-19T11:19:09.270Z,3.98
2023-01-19T11:21:35.925Z,3.90
2023-01-19T11:24:05.546Z,4.01
2023-01-19T11:26:41.433Z,4.10
2023-01-19T11:29:34.540Z,4.17
2023-01-19T11:32:11.665Z,4.17
2023-01-19T11:34:41.231Z,4.24
2023-01-19T11:37:17.486Z,4.27
2023-01-19T11:39:53.947Z,4.21
2023-01-19T11:42:25.870Z,4.09
2023-01-19T11:44:58.649Z,3.92
2023-01-19T11:47:29.879Z,3.76
2023-01-19T11:50:07.048Z,3.85
2023-01-19T11:52:44.079Z,4.00
2023-01-19T11:55:23.715Z,4.06
2023-01-19T11:57:52.828Z,4.01
2023-01-19T12:00:31.478Z,4.16
2023-01-19T12:03:03.518Z,4.12
2023-01-19T12:05:32.220Z,4.31
2023-01-19T12:07:59.494Z,4.40
2023-01-19T12:10:27.779Z,4.19
2023-01-19T12:12:56.532Z,3.99
2023-01-19T12:15:26.219Z,3.99
2023-01-19T12:17:56.439Z,4.05
2023-01-19T12:20:29.194Z,4.05
2023-01-19T12:23:01.596Z,4.01
2023-01-19T12:25:42.292Z,4.01
2023-01-19T12:28:10.210Z,4.00
2023-01-19T12:30:41.996Z,3.96
2023-01-19T12:33:24.127Z,4.03
2023-01-19T12:36:00.982Z,4.09
2023-01-19T12:38:49.007Z,4.28
2023-01-19T12:41:18.080Z,4.36
2023-01-19T12:43:49.887Z,4.23
2023-01-19T12:46:31.083Z,4.20
2023-01-19T12:49:09.580Z,4.39
2023-01-19T12:51:36.293Z,4.35
2023-01-19T12:54:07.300Z,4.21
2023-01-19T12:56:34.848Z,4.13
2023-01-19T12:59:01.562Z,4.13
2023-01-19T13:01:33.478Z,4.01
2023-01-19T13:04:04.038Z,4.05
2023-01-19T13:06:49.259Z,4.05
2023-01-19T13:09:35.845Z,4.01
2023-01-19T13:12:19.059Z,4.10
2023-01-19T13:14:45.786Z,4.05
2023-01-19T13:17:30.995Z,3.99
2023-01-19T13:20:02.500Z,4.01
2023-01-19T13:22:50.412Z,4.14
2023-01-19T13:25:35.237Z,4.18
2023-01-19T13:28:10.094Z,4.15
2023-01-19T13:30:39.403Z,4.11
2023-01-19T13:33:10.478Z,4.07
2023-01-19T13:35:37.183Z,3.95
2023-01-19T13:38:03.828Z,3.83
2023-01-19T13:40:39.171Z,3.86
2023-01-19T13:43:13.551Z,3.89
2023-01-19T13:45:41.870Z,3.82
2023-01-19T13:48:13.031Z,3.89
2023-01-19T13:50:39.736Z,3.98
2023-01-19T13:53:22.962Z,3.95
2023-01-19T13:56:10.411Z,3.97
2023-01-19T13:58:40.177Z,3.84
2023-01-19T14:01:07.878Z,3.69
2023-01-19T14:03:34.552Z,3.64
2023-01-19T14:06:01.605Z,3.67
2023-01-19T14:08:28.531Z,3.57
2023-01-19T14:10:56.429Z,3.56
2023-01-19T14:13:27.414Z,3.57
2023-01-19T14:15:58.061Z,3.51
2023-01-19T14:18:35.436Z,3.66
2023-01-19T14:21:03.681Z,3.82
2023-01-19T14:23:41.039Z,3.96
2023-01-19T14:26:26.698Z,4.08
2023-01-19T14:28:53.450Z,4.19
2023-01-19T14:31:20.858Z,4.09
2023-01-19T14:33:48.392Z,4.09
2023-01-19T14:36:17.596Z,3.97
2023-01-19T14:38:45.285Z,3.83
2023-01-19T14:41:12.425Z,3.97
2023-01-19T14:43:46.667Z,4.00
2023-01-19T14:46:19.723Z,4.03
2023-01-19T14:48:48.944Z,3.96
2023-01-19T14:51:17.685Z,4.05
2023-01-19T14:53:51.228Z,4.05
2023-01-19T14:56:27.421Z,4.09
2023-01-19T14:58:57.431Z,3.99
2023-01-19T15:01:24.661Z,3.98
2023-01-19T15:03:51.460Z,3.99
2023-01-19T15:06:19.897Z,4.04
2023-01-19T15:08:47.003Z,3.96
2023-01-19T15:11:21.367Z,3.91
2023-01-19T15:13:48.392Z,3.89
2023-01-19T15:16:17.554Z,3.97
2023-01-19T15:18:44.425Z,3.64
2023-01-19T15:21:19.684Z,3.61
2023-01-19T15:23:47.535Z,3.63
2023-01-19T15:26:18.674Z,3.64
2023-01-19T15:28:49.340Z,3.61
2023-01-19T15:31:17.552Z,3.67
2023-01-19T15:33:44.351Z,3.54
2023-01-19T15:36:16.964Z,3.50
2023-01-19T15:38:44.543Z,3.35
2023-01-19T15:41:20.772Z,3.20
2023-01-19T15:43:54.094Z,3.06
2023-01-19T15:46:23.175Z,3.05
2023-01-19T15:48:50.627Z,3.09
2023-01-19T15:51:18.457Z,3.19
2023-01-19T15:53:48.275Z,3.22
2023-01-19T15:56:15.833Z,3.14
2023-01-19T15:58:45.232Z,3.11
2023-01-19T16:01:14.213Z,3.18
2023-01-19T16:03:43.447Z,3.17
2023-01-19T16:06:13.246Z,3.12
2023-01-19T16:08:42.408Z,3.05
2023-01-19T16:11:12.280Z,2.96
2023-01-19T16:13:44.014Z,2.97
2023-01-19T16:16:15.121Z,3.00
2023-01-19T16:18:44.588Z,2.92
2023-01-19T16:21:13.708Z,2.96
2023-01-19T16:23:40.726Z,2.92
2023-01-19T16:26:08.076Z,2.91
2023-01-19T16:28:39.522Z,2.89
2023-01-19T16:31:09.470Z,2.91
2023-01-19T16:33:39.676Z,2.90
2023-01-19T16:36:26.371Z,2.88
2023-01-19T16:38:53.255Z,2.93
2023-01-19T16:41:20.254Z,2.93
2023-01-19T16:43:53.227Z,2.95
2023-01-19T16:46:34.032Z,2.98
2023-01-19T16:49:02.134Z,2.92
2023-01-19T16:51:29.381Z,2.89
2023-01-19T16:53:58.759Z,2.89
2023-01-19T16:56:27.711Z,2.85
2023-01-19T16:58:59.414Z,2.81
2023-01-19T17:01:27.294Z,2.85
2023-01-19T17:03:56.469Z,2.91
2023-01-19T17:06:23.693Z,2.96
2023-01-19T17:08:50.575Z,3.02
2023-01-19T17:11:21.293Z,3.04
2023-01-19T17:13:48.492Z,3.02
2023-01-19T17:16:15.177Z,3.19
2023-01-19T17:18:42.005Z,3.28
2023-01-19T17:21:11.533Z,3.28
2023-01-19T17:23:41.931Z,3.44
2023-01-19T17:26:08.779Z,3.49
2023-01-19T17:28:35.419Z,3.54
2023-01-19T17:31:11.664Z,3.51
2023-01-19T17:33:38.828Z,3.49
2023-01-19T17:36:11.415Z,3.41
2023-01-19T17:38:38.389Z,3.40
2023-01-19T17:41:24.295Z,3.51
2023-01-19T17:43:51.388Z,3.68
2023-01-19T17:46:21.559Z,3.76
2023-01-19T17:48:54.877Z,3.81
2023-01-19T17:51:25.067Z,3.64
2023-01-19T17:53:57.307Z,3.74
2023-01-19T17:56:29.563Z,3.63
2023-01-19T17:58:56.726Z,3.67
2023-01-19T18:01:24.305Z,3.67
2023-01-19T18:03:51.580Z,3.77
2023-01-19T18:06:18.485Z,3.75
2023-01-19T18:08:48.103Z,3.73
2023-01-19T18:11:15.020Z,3.89
2023-01-19T18:13:42.626Z,3.85
2023-01-19T18:16:13.832Z,3.80
2023-01-19T18:18:44.156Z,3.89
2023-01-19T18:21:15.067Z,4.08
2023-01-19T18:23:45.723Z,4.02
2023-01-19T18:26:15.547Z,4.06
2023-01-19T18:28:44.515Z,4.11
2023-01-19T18:31:13.039Z,4.32
2023-01-19T18:33:41.978Z,4.35
2023-01-19T18:36:11.326Z,4.32
2023-01-19T18:38:38.125Z,4.21
2023-01-19T18:41:04.883Z,4.15
2023-01-19T18:43:31.839Z,4.22
2023-01-19T18:46:00.978Z,4.09
2023-01-19T18:48:31.656Z,3.96
2023-01-19T18:51:06.742Z,3.87
2023-01-19T18:53:35.876Z,3.86
2023-01-19T18:56:03.327Z,3.98
2023-01-19T18:58:31.589Z,4.12
2023-01-19T19:00:59.035Z,3.93
2023-01-19T19:03:28.011Z,3.96
2023-01-19T19:05:54.791Z,3.95
2023-01-19T19:08:21.480Z,3.90
2023-01-19T19:10:50.570Z,3.98
2023-01-19T19:13:21.880Z,4.11
2023-01-19T19:15:59.138Z,4.27
2023-01-19T19:18:29.123Z,4.21
2023-01-19T19:20:58.052Z,4.07
2023-01-19T19:23:24.829Z,4.13
2023-01-19T19:25:51.426Z,4.13
2023-01-19T19:28:18.400Z,3.93
2023-01-19T19:30:46.614Z,3.85
2023-01-19T19:33:17.880Z,3.85
2023-01-19T19:35:44.600Z,3.97
2023-01-19T19:38:13.747Z,4.09
2023-01-19T19:40:40.444Z,4.06
2023-01-19T19:43:07.248Z,4.07
2023-01-19T19:45:33.949Z,4.10
2023-01-19T19:48:00.796Z,4.14
2023-01-19T19:50:33.166Z,4.19
2023-01-19T19:53:02.589Z,4.39
2023-01-19T19:55:31.761Z,4.52
2023-01-19T19:58:00.708Z,4.66
2023-01-19T20:00:27.376Z,4.69
2023-01-19T20:02:57.936Z,4.82
2023-01-19T20:05:24.849Z,4.78
2023-01-19T20:07:51.447Z,4.69
2023-01-19T20:10:25.776Z,4.68
2023-01-19T20:12:52.423Z,4.43
2023-01-19T20:15:22.036Z,4.13
2023-01-19T20:17:48.766Z,3.76
2023-01-19T20:20:15.569Z,3.72
2023-01-19T20:22:42.251Z,3.79
2023-01-19T20:25:11.345Z,3.84
2023-01-19T20:27:37.947Z,4.02
2023-01-19T20:30:05.026Z,4.09
2023-01-19T20:32:31.745Z,4.05
2023-01-19T20:34:58.384Z,4.07
2023-01-19T20:37:25.071Z,4.06
2023-01-19T20:39:51.767Z,3.98
2023-01-19T20:42:18.392Z,4.15
2023-01-19T20:44:47.402Z,3.88
2023-01-19T20:47:14.176Z,3.74
2023-01-19T20:49:43.312Z,3.64
2023-01-19T20:52:12.370Z,3.71
2023-01-19T20:54:41.479Z,3.85
2023-01-19T20:57:10.215Z,3.91
2023-01-19T20:59:41.034Z,4.08
2023-01-19T21:02:12.526Z,4.27
2023-01-19T21:04:39.372Z,4.33
2023-01-19T21:07:06.420Z,4.30
2023-01-19T21:09:33.553Z,4.28
2023-01-19T21:12:00.195Z,4.30
2023-01-19T21:14:28.898Z,4.29
2023-01-19T21:16:58.540Z,4.07
2023-01-19T21:19:25.392Z,3.73
2023-01-19T21:21:55.263Z,3.64
2023-01-19T21:24:24.254Z,3.77
2023-01-19T21:26:50.976Z,3.88
2023-01-19T21:29:20.016Z,3.96
2023-01-19T21:31:46.713Z,3.89
2023-01-19T21:34:14.197Z,3.92
2023-01-19T21:36:40.933Z,4.08
2023-01-19T21:39:08.279Z,3.99
2023-01-19T21:41:39.726Z,3.99
2023-01-19T21:44:06.417Z,3.89
2023-01-19T21:46:34.057Z,3.77
2023-01-19T21:49:01.676Z,3.66
2023-01-19T21:51:28.936Z,3.64
2023-01-19T21:54:00.574Z,3.72
2023-01-19T21:56:27.965Z,3.80
2023-01-19T21:58:54.885Z,4.02
2023-01-19T22:01:23.128Z,4.18
2023-01-19T22:03:53.965Z,4.25
2023-01-19T22:06:20.614Z,4.14
2023-01-19T22:08:47.287Z,3.98
2023-01-19T22:11:16.692Z,3.80
2023-01-19T22:13:43.588Z,3.73
2023-01-19T22:16:10.934Z,3.71
2023-01-19T22:18:37.881Z,3.81
2023-01-19T22:21:10.353Z,3.71
2023-01-19T22:23:37.553Z,3.44
2023-01-19T22:26:04.391Z,3.17
2023-01-19T22:28:31.272Z,3.02
2023-01-19T22:31:07.952Z,2.92
2023-01-19T22:33:35.741Z,2.91
2023-01-19T22:36:19.471Z,2.98
2023-01-19T22:38:51.029Z,3.03
2023-01-19T22:41:25.335Z,3.06
2023-01-19T22:43:56.117Z,3.10
2023-01-19T22:46:23.854Z,3.28
2023-01-19T22:48:51.111Z,3.19
2023-01-19T22:51:17.835Z,3.34
2023-01-19T22:53:44.476Z,3.21
2023-01-19T22:56:15.496Z,3.14
2023-01-19T22:58:44.270Z,3.18
2023-01-19T23:01:15.193Z,3.36
2023-01-19T23:03:44.360Z,3.43
2023-01-19T23:06:20.542Z,3.43
2023-01-19T23:08:49.319Z,3.56
2023-01-19T23:11:17.154Z,3.67
2023-01-19T23:13:48.738Z,3.80
2023-01-19T23:16:17.662Z,3.77
2023-01-19T23:18:44.501Z,3.74
2023-01-19T23:21:15.030Z,3.73
2023-01-19T23:23:44.144Z,3.74
2023-01-19T23:26:11.772Z,3.82
2023-01-19T23:28:40.888Z,3.89
2023-01-19T23:31:29.177Z,3.92
2023-01-19T23:33:56.692Z,4.00
2023-01-19T23:36:24.016Z,4.11
2023-01-19T23:38:53.488Z,4.20
2023-01-19T23:41:20.421Z,4.29
2023-01-19T23:43:47.229Z,4.27
2023-01-19T23:46:14.686Z,4.13
2023-01-19T23:48:41.368Z,4.08
2023-01-19T23:51:10.402Z,4.07
2023-01-19T23:53:37.087Z,3.95
2023-01-19T23:56:10.869Z,3.76
2023-01-19T23:58:37.721Z,3.66
